Home > Products > Valid Products > MTR

000
SAUS43 KABR 020859
MTR8D3
METAR K8D3 020856Z AUTO 00000KT 12/12 A2985 RMK AO1 SLP095 T01220117
51001





000
SAUS43 KABR 020759
MTR8D3
METAR K8D3 020756Z AUTO 27006KT 13/12 A2984 RMK AO1 SLP093 T01330122





000
SAUS43 KABR 020659
MTR8D3
METAR K8D3 020656Z AUTO 26005KT 14/13 A2985 RMK AO1 SLP095 T01440128





000
SAUS43 KABR 020557
MTR8D3
METAR K8D3 020556Z AUTO 26005KT 16/13 A2984 RMK AO1 SLP093 T01560133
10233 20139 402610122 53004





000
SAUS43 KABR 020457
MTR8D3
METAR K8D3 020456Z AUTO 28005KT 16/13 A2983 RMK AO1 SLP087 T01610128





000
SAUS43 KABR 020357
MTR8D3
METAR K8D3 020356Z AUTO 29005KT 17/13 A2983 RMK AO1 SLP088 T01720128





000
SAUS43 KABR 020357
MTR8D3
METAR K8D3 020356Z AUTO 29005KT 17/13 A2983 RMK AO1 SLP088 T01720128





000
SAUS43 KABR 020257
MTR8D3
METAR K8D3 020256Z AUTO 25005KT 18/13 A2983 RMK AO1 SLP089 T01780133
53025





000
SAUS43 KABR 020157
MTR8D3
METAR K8D3 020156Z AUTO 24006KT 17/14 A2980 RMK AO1 SLP082 T01720144





000
SAUS43 KABR 020057
MTR8D3
METAR K8D3 020056Z AUTO 27007KT 19/13 A2977 RMK AO1 SLP071 T01940133





000
SAUS43 KABR 012357
MTR8D3
METAR K8D3 012356Z AUTO 26006KT 22/13 A2975 RMK AO1 SLP066 T02170133
10261 20211 53003





000
SAUS43 KABR 012257
MTR8D3
METAR K8D3 012256Z AUTO 31008KT 24/12 A2975 RMK AO1 SLP061 T02440117





000
SAUS43 KABR 012157
MTR8D3
METAR K8D3 012156Z AUTO 36006KT 23/13 A2975 RMK AO1 SLP060 T02280128





000
SAUS43 KABR 012057
MTR8D3
METAR K8D3 012056Z AUTO 30010KT 24/12 A2974 RMK AO1 SLP058 T02440122
58008





000
SAUS43 KABR 011957
MTR8D3
METAR K8D3 011956Z AUTO 31010G17KT 25/13 A2976 RMK AO1 SLP063
T02500128





000
SAUS43 KABR 011857
MTR8D3
METAR K8D3 011856Z AUTO VRB04KT 24/13 A2977 RMK AO1 SLP066 T02440128





000
SAUS43 KABR 011757
MTR8D3
METAR K8D3 011756Z AUTO 32005KT 23/13 A2977 RMK AO1 SLP067 T02330128
10244 20122 50009





000
SAUS43 KABR 011657
MTR8D3
METAR K8D3 011656Z AUTO 34005KT 23/12 A2977 RMK AO1 SLP066 T02330122





000
SAUS43 KABR 011558
MTR8D3
METAR K8D3 011556Z AUTO 35008KT 22/14 A2976 RMK AO1 SLP066 T02220139





000
SAUS43 KABR 011457
MTR8D3
METAR K8D3 011456Z AUTO 35009KT 21/14 A2974 RMK AO1 SLP060 T02060144
53008





000
SAUS43 KABR 011357
MTR8D3
METAR K8D3 011356Z AUTO 33008KT 18/14 A2973 RMK AO1 SLP056 T01830144





000
SAUS43 KABR 011257
MTR8D3
METAR K8D3 011256Z AUTO 33006KT 16/14 A2972 RMK AO1 SLP054 T01560139





000
SAUS43 KABR 011158
MTR8D3
METAR K8D3 011156Z AUTO 36003KT 12/12 A2971 RMK AO1 SLP055 T01220122
10172 20122 53004





000
SAUS43 KABR 011057
MTR8D3
METAR K8D3 011056Z AUTO 31003KT 14/13 A2970 RMK AO1 SLP049 T01390133





000
SAUS43 KABR 010958
MTR8D3
METAR K8D3 010956Z AUTO 30005KT 16/14 A2970 RMK AO1 SLP044 T01560144





000
SAUS43 KABR 010857
MTR8D3
METAR K8D3 010856Z AUTO 32006KT 17/14 A2970 RMK AO1 SLP045 T01670144
53011





000
SAUS43 KABR 010757
MTR8D3
METAR K8D3 010756Z AUTO 32005KT 17/16 A2969 RMK AO1 SLP040 T01670156





000
SAUS43 KABR 010657
MTR8D3
METAR K8D3 010656Z AUTO 33005KT 17/16 A2966 RMK AO1 SLP031 T01670161





000
SAUS43 KABR 010557
MTR8D3
METAR K8D3 010556Z AUTO 32006KT 17/16 A2967 RMK AO1 SLP033 T01670161
10211 20156 402500150 50010





000
SAUS43 KABR 010457
MTR8D3
METAR K8D3 010456Z AUTO 29003KT 17/17 A2968 RMK AO1 SLP034 T01720172





000
SAUS43 KABR 010357
MTR8D3
METAR K8D3 010356Z AUTO 31003KT 16/16 A2967 RMK AO1 SLP033 T01560156





000
SAUS43 KABR 010258
MTR8D3
METAR K8D3 010256Z AUTO 00000KT 16/16 A2964 RMK AO1 SLP025 T01610156
53002





000
SAUS43 KABR 010157
MTR8D3
METAR K8D3 010156Z AUTO 28003KT 18/16 A2961 RMK AO1 SLP016 T01780161





000
SAUS43 KABR 010157
MTR8D3
METAR K8D3 010156Z AUTO 28003KT 18/16 A2961 RMK AO1 SLP016 T01780161





000
SAUS43 KABR 010058
MTR8D3
METAR K8D3 010056Z AUTO 25004KT 19/17 A2963 RMK AO1 SLP022 T01890172





000
SAUS43 KABR 312357
MTR8D3
METAR K8D3 312356Z AUTO 18004KT 19/18 A2963 RMK AO1 SLP024 T01940183
10250 20194 58013





000
SAUS43 KABR 312258
MTR8D3
METAR K8D3 312256Z AUTO 36005KT 21/18 A2966 RMK AO1 SLP031 T02060183





000
SAUS43 KABR 312157
MTR8D3
METAR K8D3 312156Z AUTO 30009KT 22/18 A2967 RMK AO1 SLP036 T02170178





000
SAUS43 KABR 312058
MTR8D3
METAR K8D3 312056Z AUTO 32006KT 23/18 A2967 RMK AO1 SLP035 T02280178
53013





000
SAUS43 KABR 311957
MTR8D3
METAR K8D3 311956Z AUTO 31008KT 23/18 A2965 RMK AO1 SLP028 T02330178





000
SAUS43 KABR 311857
MTR8D3
METAR K8D3 311856Z AUTO 28010KT 23/18 A2963 RMK AO1 SLP023 T02280178





000
SAUS43 KABR 311757
MTR8D3
METAR K8D3 311756Z AUTO 30009G16KT 23/18 A2963 RMK AO1 SLP022
T02280183 10250 20161 53014





000
SAUS43 KABR 311657
MTR8D3
METAR K8D3 311656Z AUTO 26010G18KT 24/18 A2961 RMK AO1 SLP014
T02440183





000
SAUS43 KABR 311557
MTR8D3
METAR K8D3 311556Z AUTO 25014G19KT 23/19 A2959 RMK AO1 SLP008
T02330189





000
SAUS43 KABR 311457
MTR8D3
METAR K8D3 311456Z AUTO 22010KT 22/19 A2959 RMK AO1 SLP008 T02170189
56006





000
SAUS43 KABR 311357
MTR8D3
METAR K8D3 311356Z AUTO 18009KT 17/17 A2959 RMK AO1 SLP012 T01720167





000
SAUS43 KABR 311257
MTR8D3
METAR K8D3 311256Z AUTO 19008KT 17/16 A2960 RMK AO1 SLP013 T01670161





000
SAUS43 KABR 311157
MTR8D3
METAR K8D3 311156Z AUTO 17009KT 16/16 A2961 RMK AO1 SLP015 60014
70014 T01610161 10161 20150 58017





000
SAUS43 KABR 311057
MTR8D3
METAR K8D3 311056Z AUTO 17008KT 16/16 A2964 RMK AO1 SLP026 T01610161





000
SAUS43 KABR 310957
MTR8D3
METAR K8D3 310956Z AUTO 19010KT 16/16 A2965 RMK AO1 SLP029 T01610161





000
SAUS43 KABR 310857
MTR8D3
METAR K8D3 310856Z AUTO 16012G21KT 16/16 A2966 RMK AO1 SLP032 P0014
60014 T01610161 58041





000
SAUS43 KABR 310757
MTR8D3
METAR K8D3 310756Z AUTO 17010KT 16/16 A2971 RMK AO1 PRESFR SLP049
T01610161





000
SAUS43 KABR 310657
MTR8D3
METAR K8D3 310656Z AUTO 17008KT 16/16 A2974 RMK AO1 SLP061 T01610161





000
SAUS43 KABR 310557
MTR8D3
METAR K8D3 310556Z AUTO 16006KT 15/15 A2978 RMK AO1 SLP077 T01500150
10194 20144 402170144 58005





000
SAUS43 KABR 310457
MTR8D3
METAR K8D3 310456Z AUTO 17004KT 14/14 A2981 RMK AO1 SLP087 T01440144





000
SAUS43 KABR 310358
MTR8D3
METAR K8D3 310356Z AUTO 18004KT 14/14 A2979 RMK AO1 SLP079 T01440144





000
SAUS43 KABR 310300
MTR8D3
METAR K8D3 310256Z AUTO 20004KT 15/15 A2980 RMK AO1 SLP084 T01500150
58005





000
SAUS43 KABR 310200
MTR8D3
METAR K8D3 310156Z AUTO 13005KT 16/16 A2981 RMK AO1 SLP087 T01610156





000
SAUS43 KABR 310059
MTR8D3
METAR K8D3 310056Z AUTO 13005KT 18/17 A2981 RMK AO1 SLP087 T01830167





000
SAUS43 KABR 302359
MTR8D3
METAR K8D3 302356Z AUTO 10006KT 19/17 A2981 RMK AO1 SLP087 T01940167
10217 20183 56012





000
SAUS43 KABR 302259
MTR8D3
METAR K8D3 302256Z AUTO 12005KT 21/17 A2983 RMK AO1 SLP089 T02110167





000
SAUS43 KABR 302200
MTR8D3
METAR K8D3 302156Z AUTO 10005KT 21/16 A2983 RMK AO1 SLP091 T02110161





000
SAUS43 KABR 302059
MTR8D3
METAR K8D3 302056Z AUTO VRB04KT 22/16 A2985 RMK AO1 SLP097 T02170156
58014





000
SAUS43 KABR 301959
MTR8D3
METAR K8D3 301956Z AUTO 00000KT 21/16 A2987 RMK AO1 SLP104 T02060156





000
SAUS43 KABR 301900
MTR8D3
METAR K8D3 301856Z AUTO 00000KT 19/14 A2989 RMK AO1 SLP112 T01940144





000
SAUS43 KABR 301759
MTR8D3
METAR K8D3 301756Z AUTO 03005KT 19/14 A2989 RMK AO1 SLP113 T01890144
10194 20150 58006





000
SAUS43 KABR 301659
MTR8D3
METAR K8D3 301656Z AUTO 33008KT 18/14 A2991 RMK AO1 SLP117 T01780144





000
SAUS43 KABR 301559
MTR8D3
METAR K8D3 301556Z AUTO 35006KT 18/14 A2991 RMK AO1 SLP120 T01780139





000
SAUS43 KABR 301500
MTR8D3
METAR K8D3 301456Z AUTO 35009KT 17/13 A2991 RMK AO1 SLP119 T01670133
58000





000
SAUS43 KABR 301400
MTR8D3
METAR K8D3 301356Z AUTO 36007KT 15/13 A2991 RMK AO1 SLP119 T01500133





000
SAUS43 KABR 301259
MTR8D3
METAR K8D3 301256Z AUTO 35010KT 15/13 A2991 RMK AO1 SLP119 T01500133





000
SAUS43 KABR 301159
MTR8D3
METAR K8D3 301156Z AUTO 34008KT 15/14 A2991 RMK AO1 SLP116 70001
T01500139 10167 20150 53011





000
SAUS43 KABR 301059
MTR8D3
METAR K8D3 301056Z AUTO 36010KT 15/14 A2989 RMK AO1 SLP110 T01500139





000
SAUS43 KABR 300959
MTR8D3
METAR K8D3 300956Z AUTO 36008KT 16/15 A2989 RMK AO1 SLP107 T01560150





    US Dept of Commerce
    National Oceanic and Atmospheric Administration
    National Weather Service
    1325 East West Highway
    Silver Spring, MD 20910
    Page Author: NWS Internet Services Team
Disclaimer
Information Quality
Credits
Glossary
Privacy Policy
Freedom of Information Act (FOIA)
About Us
Career Opportunities